createdAt,value
2023-01-17T00:02:28.539Z,3.26
2023-01-17T00:05:49.069Z,3.29
2023-01-17T00:09:09.757Z,3.32
2023-01-17T00:12:11.855Z,3.27
2023-01-17T00:15:14.281Z,3.26
2023-01-17T00:18:18.418Z,3.22
2023-01-17T00:21:39.009Z,3.15
2023-01-17T00:24:59.436Z,3.11
2023-01-17T00:28:02.065Z,3.11
2023-01-17T00:31:05.488Z,3.18
2023-01-17T00:34:07.443Z,3.20
2023-01-17T00:37:09.033Z,3.23
2023-01-17T00:40:11.210Z,3.27
2023-01-17T00:43:33.539Z,3.31
2023-01-17T00:46:54.841Z,3.35
2023-01-17T00:50:15.544Z,3.38
2023-01-17T00:53:36.252Z,3.28
2023-01-17T00:56:56.552Z,3.21
2023-01-17T01:00:16.932Z,3.22
2023-01-17T01:03:37.354Z,3.23
2023-01-17T01:06:57.573Z,3.23
2023-01-17T01:10:17.665Z,3.23
2023-01-17T01:13:41.070Z,3.18
2023-01-17T01:17:01.088Z,3.11
2023-01-17T01:20:21.420Z,3.08
2023-01-17T01:23:41.803Z,3.17
2023-01-17T01:27:02.061Z,3.12
2023-01-17T01:30:22.863Z,3.12
2023-01-17T01:33:24.594Z,3.03
2023-01-17T01:36:26.139Z,2.98
2023-01-17T01:39:28.246Z,2.93
2023-01-17T01:42:30.173Z,2.93
2023-01-17T01:45:33.736Z,2.92
2023-01-17T01:48:41.534Z,2.84
2023-01-17T01:51:49.703Z,2.83
2023-01-17T01:54:57.802Z,2.87
2023-01-17T01:58:04.438Z,2.78
2023-01-17T02:01:08.763Z,2.80
2023-01-17T02:04:11.155Z,2.86
2023-01-17T02:07:24.004Z,2.85
2023-01-17T02:10:25.730Z,2.85
2023-01-17T02:13:30.812Z,2.82
2023-01-17T02:16:47.958Z,2.76
2023-01-17T02:19:49.816Z,2.82
2023-01-17T02:22:57.382Z,2.81
2023-01-17T02:26:14.108Z,2.78
2023-01-17T02:29:53.448Z,2.81
2023-01-17T02:33:23.014Z,2.78
2023-01-17T02:36:36.398Z,2.78
2023-01-17T02:39:51.204Z,2.77
2023-01-17T02:43:02.578Z,2.74
2023-01-17T02:46:04.287Z,2.70
2023-01-17T02:49:06.195Z,2.81
2023-01-17T02:52:50.671Z,2.84
2023-01-17T02:56:03.022Z,2.91
2023-01-17T02:59:15.891Z,2.91
2023-01-17T03:02:40.642Z,2.89
2023-01-17T03:05:52.602Z,2.91
2023-01-17T03:08:54.657Z,2.95
2023-01-17T03:11:57.834Z,2.91
2023-01-17T03:14:59.509Z,2.96
2023-01-17T03:18:05.607Z,3.00
2023-01-17T03:21:08.517Z,2.98
2023-01-17T03:24:10.485Z,2.94
2023-01-17T03:27:12.421Z,2.97
2023-01-17T03:30:14.371Z,2.97
2023-01-17T03:33:19.511Z,2.96
2023-01-17T03:36:21.593Z,3.01
2023-01-17T03:39:23.412Z,3.01
2023-01-17T03:42:25.350Z,3.08
2023-01-17T03:45:27.364Z,3.09
2023-01-17T03:48:32.282Z,3.00
2023-01-17T03:51:34.424Z,3.01
2023-01-17T03:54:36.649Z,2.91
2023-01-17T03:57:38.576Z,2.86
2023-01-17T04:00:40.595Z,2.71
2023-01-17T04:03:42.266Z,2.62
2023-01-17T04:06:44.723Z,2.46
2023-01-17T04:09:46.637Z,2.42
2023-01-17T04:12:48.702Z,2.51
2023-01-17T04:15:51.474Z,2.51
2023-01-17T04:18:53.381Z,2.56
2023-01-17T04:21:55.357Z,2.74
2023-01-17T04:25:03.296Z,2.83
2023-01-17T04:28:06.536Z,2.83
2023-01-17T04:31:14.161Z,2.87
2023-01-17T04:34:17.641Z,2.88
2023-01-17T04:37:19.555Z,2.95
2023-01-17T04:40:21.379Z,2.93
2023-01-17T04:43:23.357Z,2.87
2023-01-17T04:46:26.237Z,2.92
2023-01-17T04:49:28.475Z,2.90
2023-01-17T04:52:30.617Z,2.89
2023-01-17T04:55:32.683Z,2.82
2023-01-17T04:58:34.635Z,2.84
2023-01-17T05:01:36.665Z,2.72
2023-01-17T05:04:38.693Z,2.78
2023-01-17T05:07:40.488Z,2.74
2023-01-17T05:10:42.268Z,2.76
2023-01-17T05:13:43.985Z,2.72
2023-01-17T05:16:45.848Z,2.64
2023-01-17T05:19:48.040Z,2.52
2023-01-17T05:22:57.225Z,2.40
2023-01-17T05:25:59.058Z,2.20
2023-01-17T05:29:00.862Z,2.09
2023-01-17T05:32:02.532Z,2.07
2023-01-17T05:35:04.528Z,2.06
2023-01-17T05:38:06.191Z,2.04
2023-01-17T05:41:07.889Z,1.93
2023-01-17T05:44:09.433Z,1.62
2023-01-17T05:47:11.376Z,1.43
2023-01-17T05:50:15.629Z,1.43
2023-01-17T05:53:17.368Z,1.49
2023-01-17T05:56:19.064Z,1.53
2023-01-17T05:59:35.946Z,1.56
2023-01-17T06:02:38.644Z,1.63
2023-01-17T06:05:40.555Z,1.61
2023-01-17T06:08:42.230Z,1.65
2023-01-17T06:11:44.036Z,1.59
2023-01-17T06:14:45.933Z,1.57
2023-01-17T06:17:47.617Z,1.57
2023-01-17T06:20:54.303Z,1.55
2023-01-17T06:23:55.873Z,1.56
2023-01-17T06:26:58.103Z,1.64
2023-01-17T06:29:59.696Z,1.56
2023-01-17T06:33:01.484Z,1.55
2023-01-17T06:36:03.958Z,1.51
2023-01-17T06:39:05.817Z,1.48
2023-01-17T06:42:07.569Z,1.40
2023-01-17T06:45:09.775Z,1.41
2023-01-17T06:48:11.592Z,1.35
2023-01-17T06:51:13.202Z,1.41
2023-01-17T06:54:15.146Z,1.41
2023-01-17T06:57:16.732Z,1.41
2023-01-17T07:00:18.742Z,1.41
2023-01-17T07:03:23.923Z,1.41
2023-01-17T07:06:28.781Z,1.38
2023-01-17T07:09:30.555Z,1.36
2023-01-17T07:12:32.534Z,1.33
2023-01-17T07:15:34.256Z,1.29
2023-01-17T07:18:36.228Z,1.28
2023-01-17T07:21:40.858Z,1.31
2023-01-17T07:24:42.587Z,1.34
2023-01-17T07:27:44.317Z,1.34
2023-01-17T07:30:46.238Z,1.32
2023-01-17T07:33:47.938Z,1.33
2023-01-17T07:36:49.810Z,1.36
2023-01-17T07:39:52.034Z,1.33
2023-01-17T07:42:53.938Z,1.27
2023-01-17T07:45:55.657Z,1.31
2023-01-17T07:48:57.384Z,1.35
2023-01-17T07:51:59.300Z,1.35
2023-01-17T07:55:01.105Z,1.43
2023-01-17T07:58:03.266Z,1.50
2023-01-17T08:01:08.299Z,1.53
2023-01-17T08:04:11.692Z,1.62
2023-01-17T08:07:14.080Z,1.72
2023-01-17T08:10:21.941Z,1.73
2023-01-17T08:13:23.889Z,1.69
2023-01-17T08:16:26.995Z,1.73
2023-01-17T08:19:28.762Z,1.74
2023-01-17T08:22:31.193Z,1.87
2023-01-17T08:25:35.040Z,1.91
2023-01-17T08:28:37.408Z,1.93
2023-01-17T08:31:39.288Z,1.97
2023-01-17T08:34:41.006Z,1.95
2023-01-17T08:37:42.781Z,1.84
2023-01-17T08:40:45.117Z,1.72
2023-01-17T08:43:48.523Z,1.64
2023-01-17T08:46:50.357Z,1.59
2023-01-17T08:49:52.727Z,1.47
2023-01-17T08:53:01.109Z,1.42
2023-01-17T08:56:05.189Z,1.42
2023-01-17T08:59:07.765Z,1.37
2023-01-17T09:02:15.700Z,1.41
2023-01-17T09:05:17.601Z,1.42
2023-01-17T09:08:19.722Z,1.37
2023-01-17T09:11:21.674Z,1.48
2023-01-17T09:14:23.506Z,1.54
2023-01-17T09:17:25.487Z,1.49
2023-01-17T09:20:30.194Z,1.42
2023-01-17T09:23:31.913Z,1.37
2023-01-17T09:26:33.982Z,1.55
2023-01-17T09:29:36.073Z,1.63
2023-01-17T09:32:38.002Z,1.59
2023-01-17T09:35:40.068Z,1.64
2023-01-17T09:38:42.198Z,1.59
2023-01-17T09:42:09.176Z,1.67
2023-01-17T09:45:18.197Z,1.70
2023-01-17T09:48:41.172Z,1.76
2023-01-17T09:51:43.276Z,1.79
2023-01-17T09:54:48.074Z,1.77
2023-01-17T09:58:12.055Z,1.85
2023-01-17T10:01:52.457Z,1.76
2023-01-17T10:05:08.515Z,1.79
2023-01-17T10:08:40.947Z,1.82
2023-01-17T10:11:54.995Z,1.83
2023-01-17T10:15:16.331Z,1.85
2023-01-17T10:18:43.247Z,1.88
2023-01-17T10:22:12.818Z,1.88
2023-01-17T10:25:33.210Z,1.82
2023-01-17T10:28:53.151Z,1.89
2023-01-17T10:32:01.997Z,1.84
2023-01-17T10:35:18.015Z,1.90
2023-01-17T10:38:25.589Z,1.92
2023-01-17T10:41:35.499Z,1.85
2023-01-17T10:44:50.751Z,1.89
2023-01-17T10:48:02.660Z,1.91
2023-01-17T10:51:25.956Z,1.91
2023-01-17T10:54:39.859Z,1.89
2023-01-17T10:57:44.080Z,1.93
2023-01-17T11:01:05.749Z,1.89
2023-01-17T11:04:21.182Z,2.00
2023-01-17T11:07:25.092Z,2.00
2023-01-17T11:10:57.325Z,2.04
2023-01-17T11:14:06.255Z,2.09
2023-01-17T11:17:09.703Z,2.05
2023-01-17T11:20:34.539Z,2.11
2023-01-17T11:23:36.558Z,2.11
2023-01-17T11:26:47.614Z,2.13
2023-01-17T11:30:06.326Z,2.15
2023-01-17T11:33:33.224Z,2.16
2023-01-17T11:36:35.085Z,2.14
2023-01-17T11:39:39.727Z,2.26
2023-01-17T11:42:41.687Z,2.34
2023-01-17T11:45:43.325Z,2.44
2023-01-17T11:48:53.972Z,2.46
2023-01-17T11:51:57.680Z,2.49
2023-01-17T11:54:59.902Z,2.61
2023-01-17T11:58:02.685Z,2.67
2023-01-17T12:01:35.371Z,2.75
2023-01-17T12:04:55.334Z,2.79
2023-01-17T12:07:58.624Z,2.66
2023-01-17T12:11:22.030Z,2.75
2023-01-17T12:15:03.709Z,2.71
2023-01-17T12:18:38.898Z,2.60
2023-01-17T12:22:29.428Z,2.65
2023-01-17T12:25:54.770Z,2.59
2023-01-17T12:29:27.449Z,2.66
2023-01-17T12:32:47.777Z,2.91
2023-01-17T12:36:03.311Z,3.14
2023-01-17T12:39:09.395Z,3.16
2023-01-17T12:42:18.553Z,3.17
2023-01-17T12:45:32.015Z,3.16
2023-01-17T12:48:39.614Z,3.20
2023-01-17T12:51:45.455Z,3.42
2023-01-17T12:54:55.647Z,3.64
2023-01-17T12:58:00.298Z,3.87
2023-01-17T13:01:12.665Z,3.93
2023-01-17T13:04:30.107Z,3.36
2023-01-17T13:07:57.877Z,3.15
2023-01-17T13:11:18.305Z,3.22
2023-01-17T13:14:20.220Z,3.29
2023-01-17T13:17:54.342Z,3.35
2023-01-17T13:21:29.474Z,3.43
2023-01-17T13:24:55.545Z,3.45
2023-01-17T13:28:22.797Z,3.35
2023-01-17T13:32:03.911Z,3.23
2023-01-17T13:35:11.948Z,3.02
2023-01-17T13:38:38.454Z,2.91
2023-01-17T13:49:43.436Z,2.54
2023-01-17T13:56:20.127Z,2.45
2023-01-17T13:59:29.395Z,2.45
2023-01-17T14:02:36.884Z,2.48
2023-01-17T14:05:38.518Z,2.42
2023-01-17T14:08:45.058Z,2.41
2023-01-17T14:12:11.241Z,2.42
2023-01-17T14:15:27.110Z,2.41
2023-01-17T14:18:44.020Z,2.40
2023-01-17T14:21:45.964Z,2.41
2023-01-17T14:25:12.254Z,2.42
2023-01-17T14:28:40.212Z,2.39
2023-01-17T14:31:42.595Z,2.28
2023-01-17T14:34:46.886Z,2.18
2023-01-17T14:37:52.223Z,2.11
2023-01-17T14:40:57.928Z,2.01
2023-01-17T14:44:00.957Z,1.93
2023-01-17T14:47:02.517Z,1.85
2023-01-17T14:50:11.824Z,1.80
2023-01-17T14:53:13.472Z,1.76
2023-01-17T14:56:22.845Z,1.70
2023-01-17T14:59:24.627Z,1.66
2023-01-17T15:02:27.090Z,1.57
2023-01-17T15:05:30.332Z,1.46
2023-01-17T15:08:36.504Z,1.39
2023-01-17T15:11:41.354Z,1.25
2023-01-17T15:14:45.733Z,1.15
2023-01-17T15:17:47.415Z,1.15
2023-01-17T15:21:01.412Z,1.07
2023-01-17T15:24:07.221Z,0.99
2023-01-17T15:27:16.244Z,0.88
2023-01-17T15:30:18.634Z,0.92
2023-01-17T15:33:21.482Z,0.86
2023-01-17T15:36:34.456Z,0.76
2023-01-17T15:39:39.020Z,0.61
2023-01-17T15:42:44.292Z,0.48
2023-01-17T15:45:58.264Z,0.38
2023-01-17T15:49:29.045Z,0.22
2023-01-17T15:52:30.924Z,0.08
2023-01-17T15:55:48.201Z,0.05
2023-01-17T15:58:50.311Z,0.02
2023-01-17T16:01:58.405Z,-0.04
2023-01-17T16:05:02.585Z,-0.07
2023-01-17T16:08:04.741Z,-0.14
2023-01-17T16:11:08.325Z,-0.16
2023-01-17T16:14:10.433Z,-0.20
2023-01-17T16:17:17.318Z,-0.26
2023-01-17T16:20:23.445Z,-0.30
2023-01-17T16:23:25.819Z,-0.36
2023-01-17T16:26:34.143Z,-0.39
2023-01-17T16:29:35.778Z,-0.40
2023-01-17T16:32:37.593Z,-0.45
2023-01-17T16:35:43.483Z,-0.48
2023-01-17T16:38:48.352Z,-0.52
2023-01-17T16:41:50.035Z,-0.58
2023-01-17T16:44:51.849Z,-0.59
2023-01-17T16:47:54.549Z,-0.60
2023-01-17T16:50:56.889Z,-0.61
2023-01-17T16:53:59.632Z,-0.62
2023-01-17T16:57:01.370Z,-0.61
2023-01-17T17:00:05.290Z,-0.60
2023-01-17T17:03:07.317Z,-0.60
2023-01-17T17:06:09.587Z,-0.60
2023-01-17T17:09:11.531Z,-0.65
2023-01-17T17:12:13.405Z,-0.67
2023-01-17T17:15:15.271Z,-0.69
2023-01-17T17:18:18.091Z,-0.69
2023-01-17T17:21:19.945Z,-0.69
2023-01-17T17:24:21.918Z,-0.65
2023-01-17T17:27:26.484Z,-0.67
2023-01-17T17:30:28.424Z,-0.64
2023-01-17T17:33:30.073Z,-0.65
2023-01-17T17:36:32.011Z,-0.63
2023-01-17T17:39:34.088Z,-0.61
2023-01-17T17:42:35.776Z,-0.66
2023-01-17T17:45:38.214Z,-0.70
2023-01-17T17:48:40.085Z,-0.72
2023-01-17T17:51:42.075Z,-0.77
2023-01-17T17:54:43.879Z,-0.91
2023-01-17T17:57:46.067Z,-0.91
2023-01-17T18:00:48.523Z,-0.98
2023-01-17T18:03:55.929Z,-1.04
2023-01-17T18:06:58.075Z,-1.03
2023-01-17T18:09:59.857Z,-1.10
2023-01-17T18:13:01.618Z,-1.12
2023-01-17T18:16:07.770Z,-1.16
2023-01-17T18:19:18.984Z,-1.20
2023-01-17T18:22:20.564Z,-1.22
2023-01-17T18:25:23.344Z,-1.28
2023-01-17T18:28:25.229Z,-1.28
2023-01-17T18:31:28.746Z,-1.31
2023-01-17T18:34:30.872Z,-1.33
2023-01-17T18:37:33.219Z,-1.34
2023-01-17T18:40:35.251Z,-1.38
2023-01-17T18:43:37.237Z,-1.39
2023-01-17T18:46:40.389Z,-1.45
2023-01-17T18:49:42.605Z,-1.42
2023-01-17T18:52:46.981Z,-1.44
2023-01-17T18:55:57.163Z,-1.46
2023-01-17T18:58:59.015Z,-1.44
2023-01-17T19:02:01.143Z,-1.47
2023-01-17T19:05:05.564Z,-1.48
2023-01-17T19:08:07.643Z,-1.49
2023-01-17T19:11:10.076Z,-1.51
2023-01-17T19:14:12.938Z,-1.52
2023-01-17T19:17:14.754Z,-1.48
2023-01-17T19:20:17.017Z,-1.52
2023-01-17T19:23:18.681Z,-1.49
2023-01-17T19:26:27.201Z,-1.50
2023-01-17T19:29:29.318Z,-1.49
2023-01-17T19:32:30.962Z,-1.53
2023-01-17T19:35:33.707Z,-1.49
2023-01-17T19:38:36.855Z,-1.49
2023-01-17T19:41:43.002Z,-1.45
2023-01-17T19:44:45.098Z,-1.45
2023-01-17T19:47:47.002Z,-1.52
2023-01-17T19:50:48.854Z,-1.48
2023-01-17T19:53:50.830Z,-1.52
2023-01-17T19:56:52.419Z,-1.54
2023-01-17T19:59:54.606Z,-1.55
2023-01-17T20:02:56.805Z,-1.54
2023-01-17T20:05:59.279Z,-1.53
2023-01-17T20:09:01.204Z,-1.56
2023-01-17T20:12:02.952Z,-1.58
2023-01-17T20:15:06.586Z,-1.60
2023-01-17T20:18:08.217Z,-1.61
2023-01-17T20:21:24.238Z,-1.61
2023-01-17T20:24:26.189Z,-1.62
2023-01-17T20:27:28.378Z,-1.64
2023-01-17T20:30:32.122Z,-1.63
2023-01-17T20:33:35.196Z,-1.66
2023-01-17T20:36:38.016Z,-1.62
2023-01-17T20:39:39.749Z,-1.65
2023-01-17T20:42:41.649Z,-1.65
2023-01-17T20:45:47.161Z,-1.65
2023-01-17T20:48:52.607Z,-1.71
2023-01-17T20:51:55.408Z,-1.70
2023-01-17T20:54:57.040Z,-1.69
2023-01-17T20:57:59.791Z,-1.70
2023-01-17T21:01:02.233Z,-1.76
2023-01-17T21:04:05.572Z,-1.81
2023-01-17T21:07:07.176Z,-1.84
2023-01-17T21:10:09.609Z,-1.84
2023-01-17T21:13:11.326Z,-1.89
2023-01-17T21:16:14.386Z,-1.91
2023-01-17T21:19:16.079Z,-1.93
2023-01-17T21:22:18.007Z,-1.97
2023-01-17T21:25:19.729Z,-1.99
2023-01-17T21:28:22.559Z,-1.98
2023-01-17T21:31:30.548Z,-2.00
2023-01-17T21:34:33.536Z,-2.05
2023-01-17T21:37:35.314Z,-2.10
2023-01-17T21:40:36.951Z,-2.03
2023-01-17T21:43:38.689Z,-2.03
2023-01-17T21:46:41.063Z,-2.03
2023-01-17T21:49:42.738Z,-2.01
2023-01-17T21:52:46.563Z,-2.04
2023-01-17T21:56:07.459Z,-2.07
2023-01-17T21:59:09.115Z,-2.03
2023-01-17T22:02:10.944Z,-1.99
2023-01-17T22:05:13.703Z,-1.97
2023-01-17T22:08:15.478Z,-1.98
2023-01-17T22:11:20.283Z,-2.02
2023-01-17T22:14:22.426Z,-2.01
2023-01-17T22:17:24.264Z,-2.00
2023-01-17T22:20:26.163Z,-1.99
2023-01-17T22:23:28.892Z,-1.98
2023-01-17T22:26:31.565Z,-1.98
2023-01-17T22:29:33.954Z,-2.01
2023-01-17T22:32:35.552Z,-2.05
2023-01-17T22:35:37.240Z,-2.05
2023-01-17T22:38:40.547Z,-2.10
2023-01-17T22:41:42.184Z,-2.09
2023-01-17T22:44:44.000Z,-2.08
2023-01-17T22:47:45.811Z,-2.06
2023-01-17T22:50:48.001Z,-2.07
2023-01-17T22:53:52.832Z,-2.04
2023-01-17T22:56:54.618Z,-2.08
2023-01-17T22:59:56.435Z,-2.08
2023-01-17T23:02:58.538Z,-2.12
2023-01-17T23:06:20.791Z,-2.14
2023-01-17T23:09:22.643Z,-2.20
2023-01-17T23:12:24.330Z,-2.22
2023-01-17T23:15:44.945Z,-2.24
2023-01-17T23:19:08.170Z,-2.24
2023-01-17T23:22:21.852Z,-2.24
2023-01-17T23:25:23.504Z,-2.22
2023-01-17T23:28:25.085Z,-2.26
2023-01-17T23:31:26.639Z,-2.26
2023-01-17T23:34:28.712Z,-2.23
2023-01-17T23:37:49.819Z,-2.24
2023-01-17T23:41:19.540Z,-2.26
2023-01-17T23:44:23.423Z,-2.24
2023-01-17T23:47:25.289Z,-2.24
2023-01-17T23:50:26.973Z,-2.23
2023-01-17T23:53:28.789Z,-2.27
2023-01-17T23:56:30.777Z,-2.29
2023-01-17T23:59:32.964Z,-2.32
